createdAt,value
2023-04-05T00:01:13.653Z,9.60
2023-04-05T00:03:42.974Z,7.97
2023-04-05T00:06:13.098Z,8.57
2023-04-05T00:08:40.186Z,9.02
2023-04-05T00:11:06.888Z,10.68
2023-04-05T00:13:33.572Z,9.40
2023-04-05T00:16:01.977Z,12.15
2023-04-05T00:18:34.057Z,10.48
2023-04-05T00:21:01.276Z,11.50
2023-04-05T00:23:28.247Z,11.00
2023-04-05T00:25:54.900Z,12.27
2023-04-05T00:28:22.994Z,11.30
2023-04-05T00:30:52.356Z,11.60
2023-04-05T00:33:18.952Z,10.70
2023-04-05T00:35:45.538Z,12.82
2023-04-05T00:38:12.136Z,10.85
2023-04-05T00:40:38.794Z,10.88
2023-04-05T00:43:05.435Z,10.35
2023-04-05T00:45:32.302Z,10.90
2023-04-05T00:47:59.018Z,9.85
2023-04-05T00:50:30.883Z,9.80
2023-04-05T00:52:58.647Z,10.98
2023-04-05T00:55:26.926Z,10.93
2023-04-05T00:57:55.875Z,10.02
2023-04-05T01:00:23.026Z,13.18
2023-04-05T01:02:53.117Z,11.95
2023-04-05T01:05:43.075Z,11.45
2023-04-05T01:08:37.440Z,10.88
2023-04-05T01:11:06.732Z,9.73
2023-04-05T01:13:33.554Z,10.80
2023-04-05T01:16:00.401Z,10.30
2023-04-05T01:18:27.623Z,10.90
2023-04-05T01:21:10.557Z,11.00
2023-04-05T01:23:53.172Z,12.68
2023-04-05T01:27:14.244Z,10.93
2023-04-05T01:30:12.185Z,11.90
2023-04-05T01:33:08.817Z,11.27
2023-04-05T01:36:01.967Z,10.75
2023-04-05T01:38:30.197Z,11.68
2023-04-05T01:40:56.855Z,12.40
2023-04-05T01:43:23.496Z,12.80
2023-04-05T01:45:50.301Z,12.77
2023-04-05T01:48:16.918Z,12.45
2023-04-05T01:50:43.684Z,11.48
2023-04-05T01:53:10.775Z,12.02
2023-04-05T01:55:37.465Z,12.77
2023-04-05T01:58:04.173Z,12.27
2023-04-05T02:00:30.993Z,12.32
2023-04-05T02:02:58.044Z,12.30
2023-04-05T02:05:24.751Z,12.48
2023-04-05T02:07:51.593Z,12.63
2023-04-05T02:10:19.237Z,10.82
2023-04-05T02:12:46.191Z,11.98
2023-04-05T02:15:12.794Z,12.18
2023-04-05T02:17:39.916Z,10.95
2023-04-05T02:20:12.385Z,11.88
2023-04-05T02:22:40.023Z,13.15
2023-04-05T02:25:10.635Z,16.15
2023-04-05T02:27:37.273Z,15.25
2023-04-05T02:30:04.274Z,15.20
2023-04-05T02:32:31.977Z,14.25
2023-04-05T02:34:58.741Z,16.13
2023-04-05T02:37:27.051Z,16.00
2023-04-05T02:39:54.497Z,14.38
2023-04-05T02:42:21.303Z,14.15
2023-04-05T02:44:48.035Z,14.73
2023-04-05T02:47:21.515Z,14.88
2023-04-05T02:49:48.840Z,14.05
2023-04-05T02:52:16.175Z,14.75
2023-04-05T02:54:43.901Z,13.70
2023-04-05T02:57:11.644Z,12.82
2023-04-05T02:59:39.146Z,13.75
2023-04-05T03:02:07.196Z,13.25
2023-04-05T03:04:37.002Z,13.30
2023-04-05T03:07:04.872Z,13.13
2023-04-05T03:09:34.714Z,13.05
2023-04-05T03:12:03.602Z,13.07
2023-04-05T03:14:30.860Z,13.63
2023-04-05T03:16:57.863Z,13.30
2023-04-05T03:19:26.011Z,12.27
2023-04-05T03:21:53.822Z,14.80
2023-04-05T03:24:20.688Z,13.65
2023-04-05T03:26:48.158Z,12.05
2023-04-05T03:29:15.695Z,14.13
2023-04-05T03:31:42.541Z,15.02
2023-04-05T03:34:09.231Z,13.57
2023-04-05T03:36:41.998Z,11.90
2023-04-05T03:39:13.505Z,11.45
2023-04-05T03:41:41.102Z,13.30
2023-04-05T03:44:08.779Z,13.60
2023-04-05T03:46:38.024Z,12.73
2023-04-05T03:49:04.839Z,14.38
2023-04-05T03:51:32.659Z,14.32
2023-04-05T03:53:59.475Z,13.65
2023-04-05T03:56:27.111Z,13.77
2023-04-05T03:58:54.063Z,15.60
2023-04-05T04:01:20.811Z,14.70
2023-04-05T04:03:47.516Z,15.93
2023-04-05T04:06:14.978Z,14.50
2023-04-05T04:08:42.420Z,13.23
2023-04-05T04:11:09.107Z,14.27
2023-04-05T04:13:35.889Z,15.23
2023-04-05T04:16:03.755Z,14.27
2023-04-05T04:18:30.531Z,14.95
2023-04-05T04:20:58.625Z,14.57
2023-04-05T04:23:27.174Z,14.25
2023-04-05T04:25:54.636Z,13.10
2023-04-05T04:28:21.584Z,13.70
2023-04-05T04:30:48.249Z,16.00
2023-04-05T04:33:14.969Z,14.20
2023-04-05T04:35:42.483Z,14.88
2023-04-05T04:38:09.593Z,16.38
2023-04-05T04:40:41.444Z,15.75
2023-04-05T04:43:19.001Z,17.27
2023-04-05T04:45:48.163Z,15.48
2023-04-05T04:48:16.805Z,17.50
2023-04-05T04:50:44.697Z,14.65
2023-04-05T04:53:13.522Z,13.55
2023-04-05T04:55:43.703Z,15.70
2023-04-05T04:58:13.335Z,16.45
2023-04-05T05:00:42.069Z,17.52
2023-04-05T05:03:11.201Z,15.93
2023-04-05T05:05:44.196Z,14.68
2023-04-05T05:08:11.168Z,16.70
2023-04-05T05:10:37.964Z,14.02
2023-04-05T05:13:04.642Z,15.98
2023-04-05T05:15:31.357Z,16.65
2023-04-05T05:17:58.393Z,16.70
2023-04-05T05:20:28.594Z,16.92
2023-04-05T05:22:55.723Z,16.48
2023-04-05T05:25:22.716Z,16.05
2023-04-05T05:27:51.070Z,16.05
2023-04-05T05:30:18.852Z,16.38
2023-04-05T05:32:45.555Z,15.88
2023-04-05T05:35:12.199Z,15.77
2023-04-05T05:37:39.243Z,15.45
2023-04-05T05:40:06.674Z,16.10
2023-04-05T05:42:34.252Z,16.77
2023-04-05T05:45:05.900Z,16.55
2023-04-05T05:47:32.891Z,17.00
2023-04-05T05:49:59.595Z,15.77
2023-04-05T05:52:26.255Z,16.63
2023-04-05T05:54:52.843Z,17.95
2023-04-05T05:57:20.300Z,16.17
2023-04-05T05:59:46.987Z,15.20
2023-04-05T06:02:14.070Z,16.95
2023-04-05T06:04:40.881Z,17.13
2023-04-05T06:07:07.821Z,21.15
2023-04-05T06:09:35.235Z,20.77
2023-04-05T06:12:02.227Z,19.83
2023-04-05T06:14:29.828Z,18.10
2023-04-05T06:16:56.707Z,17.60
2023-04-05T06:19:23.465Z,19.02
2023-04-05T06:21:50.347Z,20.63
2023-04-05T06:24:16.990Z,20.65
2023-04-05T06:26:43.599Z,21.48
2023-04-05T06:29:10.245Z,22.20
2023-04-05T06:31:37.470Z,22.88
2023-04-05T06:34:04.516Z,22.67
2023-04-05T06:36:32.033Z,22.88
2023-04-05T06:38:59.620Z,23.23
2023-04-05T06:41:27.741Z,22.75
2023-04-05T06:43:54.979Z,22.70
2023-04-05T06:46:21.952Z,23.48
2023-04-05T06:48:49.886Z,23.58
2023-04-05T06:51:16.862Z,22.35
2023-04-05T06:53:43.689Z,24.27
2023-04-05T06:56:11.031Z,25.25
2023-04-05T06:58:37.637Z,23.83
2023-04-05T07:01:04.856Z,21.38
2023-04-05T07:03:32.550Z,22.40
2023-04-05T07:06:00.306Z,20.65
2023-04-05T07:08:28.646Z,21.88
2023-04-05T07:10:55.364Z,20.85
2023-04-05T07:13:23.489Z,20.45
2023-04-05T07:15:51.228Z,15.98
2023-04-05T07:18:19.168Z,21.10
2023-04-05T07:20:52.233Z,20.50
2023-04-05T07:23:19.989Z,17.83
2023-04-05T07:25:47.338Z,18.80
2023-04-05T07:28:14.002Z,19.17
2023-04-05T07:30:40.901Z,18.65
2023-04-05T07:33:07.898Z,19.38
2023-04-05T07:35:34.714Z,18.25
2023-04-05T07:38:01.454Z,15.25
2023-04-05T07:40:28.127Z,18.20
2023-04-05T07:42:54.959Z,17.33
2023-04-05T07:45:21.586Z,16.38
2023-04-05T07:47:48.283Z,17.48
2023-04-05T07:50:15.506Z,16.48
2023-04-05T07:52:44.768Z,15.38
2023-04-05T07:55:11.412Z,14.73
2023-04-05T07:57:38.070Z,16.05
2023-04-05T08:00:10.817Z,13.70
2023-04-05T08:02:37.694Z,13.15
2023-04-05T08:05:05.163Z,13.35
2023-04-05T08:07:31.932Z,13.75
2023-04-05T08:09:59.803Z,11.30
2023-04-05T08:12:27.126Z,11.55
2023-04-05T08:14:53.999Z,11.82
2023-04-05T08:17:20.748Z,10.73
2023-04-05T08:19:47.562Z,12.10
2023-04-05T08:22:16.496Z,9.57
2023-04-05T08:24:43.209Z,11.55
2023-04-05T08:27:09.922Z,10.48
2023-04-05T08:29:37.376Z,8.98
2023-04-05T08:32:04.499Z,10.32
2023-04-05T08:34:31.211Z,8.55
2023-04-05T08:37:00.938Z,9.80
2023-04-05T08:39:27.580Z,7.57
2023-04-05T08:42:06.261Z,8.77
2023-04-05T08:44:36.372Z,8.65
2023-04-05T08:47:03.232Z,7.45
2023-04-05T08:49:29.919Z,7.40
2023-04-05T08:51:59.194Z,7.90
2023-04-05T08:54:26.076Z,8.10
2023-04-05T08:56:54.584Z,6.72
2023-04-05T08:59:21.944Z,6.78
2023-04-05T09:01:50.205Z,6.65
2023-04-05T09:04:24.432Z,6.82
2023-04-05T09:06:52.287Z,6.57
2023-04-05T09:09:24.270Z,4.90
2023-04-05T09:11:51.172Z,6.03
2023-04-05T09:14:19.151Z,6.13
2023-04-05T09:16:46.178Z,6.60
2023-04-05T09:19:12.942Z,7.07
2023-04-05T09:21:59.989Z,6.88
2023-04-05T09:24:43.910Z,7.30
2023-04-05T09:27:20.456Z,7.90
2023-04-05T09:29:50.077Z,5.55
2023-04-05T09:32:20.503Z,6.28
2023-04-05T09:34:48.043Z,6.60
2023-04-05T09:37:19.923Z,6.75
2023-04-05T09:39:57.566Z,7.00
2023-04-05T09:42:24.656Z,5.30
2023-04-05T09:44:53.700Z,6.20
2023-04-05T09:47:31.458Z,6.03
2023-04-05T09:50:06.065Z,5.50
2023-04-05T09:52:32.945Z,5.68
2023-04-05T09:55:02.059Z,4.00
2023-04-05T09:57:33.256Z,6.32
2023-04-05T10:00:01.305Z,6.75
2023-04-05T10:02:39.591Z,7.47
2023-04-05T10:05:07.720Z,6.80
2023-04-05T10:07:35.398Z,6.38
2023-04-05T10:10:03.270Z,6.22
2023-04-05T10:12:32.514Z,6.93
2023-04-05T10:14:59.753Z,6.13
2023-04-05T10:17:39.100Z,5.93
2023-04-05T10:20:14.945Z,6.88
2023-04-05T10:22:52.397Z,6.95
2023-04-05T10:25:53.644Z,7.18
2023-04-05T10:28:37.491Z,5.20
2023-04-05T10:31:36.375Z,5.93
2023-04-05T10:34:11.181Z,6.13
2023-04-05T10:37:01.867Z,5.88
2023-04-05T10:39:33.524Z,6.88
2023-04-05T10:42:06.897Z,6.43
2023-04-05T10:44:36.234Z,7.28
2023-04-05T10:47:05.121Z,7.75
2023-04-05T10:49:37.862Z,5.97
2023-04-05T10:52:06.012Z,8.80
2023-04-05T10:54:37.367Z,7.03
2023-04-05T10:57:10.474Z,5.55
2023-04-05T10:59:43.509Z,5.80
2023-04-05T11:02:11.335Z,7.95
2023-04-05T11:04:41.702Z,6.90
2023-04-05T11:07:14.126Z,8.88
2023-04-05T11:09:53.598Z,7.88
2023-04-05T11:12:20.428Z,6.88
2023-04-05T11:14:47.177Z,8.25
2023-04-05T11:17:40.196Z,7.80
2023-04-05T11:20:11.820Z,7.10
2023-04-05T11:22:38.504Z,7.22
2023-04-05T11:25:06.407Z,5.20
2023-04-05T11:27:36.912Z,7.78
2023-04-05T11:30:05.446Z,7.20
2023-04-05T11:32:43.708Z,8.77
2023-04-05T11:35:25.740Z,7.85
2023-04-05T11:38:01.677Z,6.75
2023-04-05T11:40:31.936Z,7.32
2023-04-05T11:43:09.650Z,6.85
2023-04-05T11:45:39.079Z,7.38
2023-04-05T11:48:11.265Z,7.45
2023-04-05T11:50:39.733Z,9.15
2023-04-05T11:53:13.317Z,9.10
2023-04-05T11:55:51.077Z,7.13
2023-04-05T12:02:00.124Z,8.15
2023-04-05T12:04:26.759Z,7.90
2023-04-05T12:07:13.677Z,7.30
2023-04-05T18:41:00.037Z,15.02
2023-04-05T18:43:26.679Z,16.85
2023-04-05T18:45:56.154Z,14.93
2023-04-05T18:48:25.055Z,15.68
2023-04-05T18:50:53.801Z,12.40
2023-04-05T19:09:39.498Z,14.55
2023-04-05T19:12:06.336Z,14.73
2023-04-05T19:14:33.398Z,14.77
2023-04-05T19:36:14.991Z,15.50
2023-04-05T19:38:41.665Z,15.10
2023-04-05T19:41:08.310Z,14.50
2023-04-05T19:52:08.194Z,15.10
2023-04-05T19:54:36.546Z,15.60
2023-04-05T19:57:05.531Z,14.52
2023-04-05T20:52:05.182Z,15.02
2023-04-05T20:54:31.851Z,14.45
2023-04-05T20:56:58.524Z,16.17
2023-04-05T20:59:26.133Z,16.80
2023-04-05T21:09:37.850Z,15.60
2023-04-05T21:12:04.808Z,17.17
2023-04-05T21:14:31.503Z,16.08
2023-04-05T21:16:58.077Z,16.40
2023-04-05T21:19:24.857Z,17.23
2023-04-05T22:43:01.941Z,17.30
2023-04-05T22:45:28.707Z,20.30
2023-04-05T22:47:55.947Z,17.40
2023-04-05T22:50:22.617Z,18.27
2023-04-05T22:52:49.173Z,18.60
2023-04-05T22:55:15.935Z,19.27
2023-04-05T23:13:07.073Z,18.80
2023-04-05T23:15:33.812Z,19.63
2023-04-05T23:18:00.592Z,20.05
2023-04-05T23:20:27.206Z,18.27
2023-04-05T23:22:53.836Z,20.15
2023-04-05T23:48:27.192Z,18.50
2023-04-05T23:50:54.010Z,20.40
2023-04-05T23:53:20.880Z,17.65
2023-04-05T23:55:49.413Z,18.52
2023-04-05T23:58:16.046Z,16.88
